sensor_id;sensor_type;location;lat;lon;timestamp;P1;durP1;ratioP1;P2;durP2;ratioP2
75285;SDS011;63879;46.064;14.532;2024-03-23T07:01:08;13.35;;;9.63;;
75285;SDS011;63879;46.064;14.532;2024-03-23T07:03:34;12.75;;;7.93;;
75285;SDS011;63879;46.064;14.532;2024-03-23T07:06:00;11.63;;;8.95;;
75285;SDS011;63879;46.064;14.532;2024-03-23T07:08:25;8.02;;;6.78;;
75285;SDS011;63879;46.064;14.532;2024-03-23T07:10:50;12.18;;;8.95;;
75285;SDS011;63879;46.064;14.532;2024-03-23T07:13:16;10.85;;;7.68;;
75285;SDS011;63879;46.064;14.532;2024-03-23T07:15:42;8.35;;;7.00;;
75285;SDS011;63879;46.064;14.532;2024-03-23T07:18:07;4.20;;;3.78;;
75285;SDS011;63879;46.064;14.532;2024-03-23T07:20:33;5.60;;;5.00;;
75285;SDS011;63879;46.064;14.532;2024-03-23T07:22:58;4.40;;;3.65;;
75285;SDS011;63879;46.064;14.532;2024-03-23T07:25:24;4.47;;;3.90;;
75285;SDS011;63879;46.064;14.532;2024-03-23T07:27:53;4.57;;;3.92;;
75285;SDS011;63879;46.064;14.532;2024-03-23T07:30:18;4.03;;;3.38;;
75285;SDS011;63879;46.064;14.532;2024-03-23T07:32:44;4.07;;;3.72;;
75285;SDS011;63879;46.064;14.532;2024-03-23T07:35:10;4.18;;;3.78;;
75285;SDS011;63879;46.064;14.532;2024-03-23T07:37:35;5.43;;;5.03;;
75285;SDS011;63879;46.064;14.532;2024-03-23T07:40:01;5.10;;;4.70;;
75285;SDS011;63879;46.064;14.532;2024-03-23T07:42:26;6.05;;;4.20;;
75285;SDS011;63879;46.064;14.532;2024-03-23T07:44:52;4.45;;;3.63;;
75285;SDS011;63879;46.064;14.532;2024-03-23T07:47:19;4.78;;;4.45;;
75285;SDS011;63879;46.064;14.532;2024-03-23T07:49:45;4.30;;;3.90;;
75285;SDS011;63879;46.064;14.532;2024-03-23T07:52:10;5.30;;;4.95;;
75285;SDS011;63879;46.064;14.532;2024-03-23T07:54:36;5.07;;;4.10;;
75285;SDS011;63879;46.064;14.532;2024-03-23T07:57:01;6.75;;;2.63;;
75285;SDS011;63879;46.064;14.532;2024-03-23T07:59:27;4.38;;;3.80;;
75285;SDS011;63879;46.064;14.532;2024-03-23T08:01:53;5.15;;;2.28;;
75285;SDS011;63879;46.064;14.532;2024-03-23T08:04:18;3.95;;;3.42;;
75285;SDS011;63879;46.064;14.532;2024-03-23T08:06:44;4.03;;;1.70;;
75285;SDS011;63879;46.064;14.532;2024-03-23T08:09:09;4.10;;;3.55;;
75285;SDS011;63879;46.064;14.532;2024-03-23T08:11:35;3.55;;;3.22;;
75285;SDS011;63879;46.064;14.532;2024-03-23T08:14:06;4.50;;;3.70;;
75285;SDS011;63879;46.064;14.532;2024-03-23T08:16:31;4.05;;;3.58;;
75285;SDS011;63879;46.064;14.532;2024-03-23T08:18:59;3.35;;;2.40;;
75285;SDS011;63879;46.064;14.532;2024-03-23T08:21:24;2.55;;;2.35;;
75285;SDS011;63879;46.064;14.532;2024-03-23T08:23:51;4.57;;;3.83;;
75285;SDS011;63879;46.064;14.532;2024-03-23T08:26:16;4.10;;;3.28;;
75285;SDS011;63879;46.064;14.532;2024-03-23T08:28:45;4.38;;;3.38;;
75285;SDS011;63879;46.064;14.532;2024-03-23T08:31:11;4.72;;;3.60;;
75285;SDS011;63879;46.064;14.532;2024-03-23T08:33:37;4.20;;;3.80;;
75285;SDS011;63879;46.064;14.532;2024-03-23T08:36:06;3.33;;;3.03;;
75285;SDS011;63879;46.064;14.532;2024-03-23T08:38:33;3.53;;;2.88;;
75285;SDS011;63879;46.064;14.532;2024-03-23T08:41:00;3.35;;;3.05;;
75285;SDS011;63879;46.064;14.532;2024-03-23T08:43:27;4.47;;;2.60;;
75285;SDS011;63879;46.064;14.532;2024-03-23T08:46:03;2.75;;;2.55;;
75285;SDS011;63879;46.064;14.532;2024-03-23T08:48:35;3.55;;;2.45;;
75285;SDS011;63879;46.064;14.532;2024-03-23T08:51:13;4.05;;;3.70;;
75285;SDS011;63879;46.064;14.532;2024-03-23T08:53:40;2.65;;;2.45;;
75285;SDS011;63879;46.064;14.532;2024-03-23T08:56:07;2.05;;;1.73;;
75285;SDS011;63879;46.064;14.532;2024-03-23T08:58:36;3.72;;;3.42;;
75285;SDS011;63879;46.064;14.532;2024-03-23T09:03:33;2.38;;;2.17;;
75285;SDS011;63879;46.064;14.532;2024-03-23T09:06:00;2.63;;;2.38;;
75285;SDS011;63879;46.064;14.532;2024-03-23T09:08:26;2.63;;;1.83;;
75285;SDS011;63879;46.064;14.532;2024-03-23T09:10:52;3.53;;;2.42;;
75285;SDS011;63879;46.064;14.532;2024-03-23T09:13:17;2.72;;;2.53;;
75285;SDS011;63879;46.064;14.532;2024-03-23T09:15:50;2.63;;;2.38;;
75285;SDS011;63879;46.064;14.532;2024-03-23T09:18:16;2.83;;;2.40;;
75285;SDS011;63879;46.064;14.532;2024-03-23T09:20:42;3.70;;;2.22;;
75285;SDS011;63879;46.064;14.532;2024-03-23T09:23:07;3.55;;;2.85;;
75285;SDS011;63879;46.064;14.532;2024-03-23T09:25:39;3.55;;;3.10;;
75285;SDS011;63879;46.064;14.532;2024-03-23T09:28:05;3.58;;;2.45;;
75285;SDS011;63879;46.064;14.532;2024-03-23T09:30:33;3.83;;;2.58;;
75285;SDS011;63879;46.064;14.532;2024-03-23T09:33:00;2.78;;;2.58;;
75285;SDS011;63879;46.064;14.532;2024-03-23T09:35:26;2.60;;;2.40;;
75285;SDS011;63879;46.064;14.532;2024-03-23T09:37:52;4.93;;;3.63;;
75285;SDS011;63879;46.064;14.532;2024-03-23T09:40:17;3.92;;;3.28;;
75285;SDS011;63879;46.064;14.532;2024-03-23T09:42:43;3.33;;;2.72;;
75285;SDS011;63879;46.064;14.532;2024-03-23T09:45:22;4.78;;;4.13;;
75285;SDS011;63879;46.064;14.532;2024-03-23T09:47:52;4.88;;;4.13;;
75285;SDS011;63879;46.064;14.532;2024-03-23T09:50:18;3.60;;;3.08;;
75285;SDS011;63879;46.064;14.532;2024-03-23T09:52:45;3.25;;;2.15;;
75285;SDS011;63879;46.064;14.532;2024-03-23T09:55:11;3.45;;;3.17;;
75285;SDS011;63879;46.064;14.532;2024-03-23T09:57:36;3.47;;;3.17;;
75285;SDS011;63879;46.064;14.532;2024-03-23T10:00:02;2.42;;;2.15;;
75285;SDS011;63879;46.064;14.532;2024-03-23T10:02:28;3.38;;;2.90;;
75285;SDS011;63879;46.064;14.532;2024-03-23T10:04:54;2.53;;;2.33;;
75285;SDS011;63879;46.064;14.532;2024-03-23T10:07:19;2.92;;;2.65;;
75285;SDS011;63879;46.064;14.532;2024-03-23T10:09:45;3.05;;;2.85;;
75285;SDS011;63879;46.064;14.532;2024-03-23T10:12:16;2.33;;;2.22;;
75285;SDS011;63879;46.064;14.532;2024-03-23T10:19:50;3.05;;;2.75;;
75285;SDS011;63879;46.064;14.532;2024-03-23T10:22:18;1.35;;;0.93;;
75285;SDS011;63879;46.064;14.532;2024-03-23T10:24:44;2.35;;;1.15;;
75285;SDS011;63879;46.064;14.532;2024-03-23T10:27:17;3.15;;;2.85;;
75285;SDS011;63879;46.064;14.532;2024-03-23T10:29:48;5.82;;;2.63;;
75285;SDS011;63879;46.064;14.532;2024-03-23T10:32:17;2.97;;;2.58;;
75285;SDS011;63879;46.064;14.532;2024-03-23T10:34:42;2.42;;;2.22;;
75285;SDS011;63879;46.064;14.532;2024-03-23T10:37:08;3.30;;;2.55;;
75285;SDS011;63879;46.064;14.532;2024-03-23T10:39:40;2.30;;;2.10;;
75285;SDS011;63879;46.064;14.532;2024-03-23T10:42:06;2.47;;;1.90;;
75285;SDS011;63879;46.064;14.532;2024-03-23T10:44:34;3.03;;;2.83;;
75285;SDS011;63879;46.064;14.532;2024-03-23T10:47:03;1.92;;;1.75;;
75285;SDS011;63879;46.064;14.532;2024-03-23T10:49:33;3.60;;;3.40;;
75285;SDS011;63879;46.064;14.532;2024-03-23T10:51:59;3.17;;;2.88;;
75285;SDS011;63879;46.064;14.532;2024-03-23T10:54:26;2.00;;;1.88;;
75285;SDS011;63879;46.064;14.532;2024-03-23T10:56:53;3.45;;;2.85;;
75285;SDS011;63879;46.064;14.532;2024-03-23T10:59:31;2.58;;;2.10;;
75285;SDS011;63879;46.064;14.532;2024-03-23T11:01:57;23.55;;;6.20;;
75285;SDS011;63879;46.064;14.532;2024-03-23T11:04:29;11.38;;;4.72;;
75285;SDS011;63879;46.064;14.532;2024-03-23T11:06:56;4.82;;;2.58;;
75285;SDS011;63879;46.064;14.532;2024-03-23T11:12:09;3.00;;;2.17;;
75285;SDS011;63879;46.064;14.532;2024-03-23T11:14:49;5.00;;;2.47;;
75285;SDS011;63879;46.064;14.532;2024-03-23T11:17:19;2.00;;;1.50;;
75285;SDS011;63879;46.064;14.532;2024-03-23T11:20:02;1.95;;;1.13;;
75285;SDS011;63879;46.064;14.532;2024-03-23T11:25:15;4.72;;;3.35;;
75285;SDS011;63879;46.064;14.532;2024-03-23T11:27:42;3.50;;;2.97;;
75285;SDS011;63879;46.064;14.532;2024-03-23T11:30:12;4.40;;;2.92;;
75285;SDS011;63879;46.064;14.532;2024-03-23T11:32:39;6.43;;;2.90;;
75285;SDS011;63879;46.064;14.532;2024-03-23T11:35:04;1.73;;;1.50;;
75285;SDS011;63879;46.064;14.532;2024-03-23T11:37:31;2.20;;;2.03;;
75285;SDS011;63879;46.064;14.532;2024-03-23T11:39:56;3.30;;;2.30;;
75285;SDS011;63879;46.064;14.532;2024-03-23T11:42:22;2.53;;;1.92;;
75285;SDS011;63879;46.064;14.532;2024-03-23T11:44:47;7.85;;;2.47;;
75285;SDS011;63879;46.064;14.532;2024-03-23T11:47:12;8.45;;;3.20;;
75285;SDS011;63879;46.064;14.532;2024-03-23T11:49:38;2.83;;;2.25;;
75285;SDS011;63879;46.064;14.532;2024-03-23T11:52:06;4.55;;;2.78;;
75285;SDS011;63879;46.064;14.532;2024-03-23T11:54:33;3.10;;;2.90;;
75285;SDS011;63879;46.064;14.532;2024-03-23T11:56:59;4.57;;;2.80;;
75285;SDS011;63879;46.064;14.532;2024-03-23T11:59:32;3.97;;;2.17;;
75285;SDS011;63879;46.064;14.532;2024-03-23T12:01:59;1.73;;;1.45;;
75285;SDS011;63879;46.064;14.532;2024-03-23T12:04:28;4.03;;;3.13;;
75285;SDS011;63879;46.064;14.532;2024-03-23T12:09:39;2.85;;;2.65;;
75285;SDS011;63879;46.064;14.532;2024-03-23T12:12:15;2.78;;;2.38;;
75285;SDS011;63879;46.064;14.532;2024-03-23T12:14:42;1.80;;;1.20;;
75285;SDS011;63879;46.064;14.532;2024-03-23T12:17:17;3.05;;;2.85;;
75285;SDS011;63879;46.064;14.532;2024-03-23T12:19:46;3.30;;;1.67;;
75285;SDS011;63879;46.064;14.532;2024-03-23T12:22:12;2.10;;;1.63;;
75285;SDS011;63879;46.064;14.532;2024-03-23T12:24:38;2.03;;;1.23;;
75285;SDS011;63879;46.064;14.532;2024-03-23T12:27:10;2.60;;;1.50;;
75285;SDS011;63879;46.064;14.532;2024-03-23T12:29:35;4.63;;;1.65;;
75285;SDS011;63879;46.064;14.532;2024-03-23T12:32:01;2.60;;;2.05;;
75285;SDS011;63879;46.064;14.532;2024-03-23T12:34:28;2.85;;;2.33;;
75285;SDS011;63879;46.064;14.532;2024-03-23T12:36:55;2.85;;;2.45;;
75285;SDS011;63879;46.064;14.532;2024-03-23T12:39:21;4.50;;;3.22;;
75285;SDS011;63879;46.064;14.532;2024-03-23T12:41:47;3.20;;;2.90;;
75285;SDS011;63879;46.064;14.532;2024-03-23T12:44:15;2.83;;;2.10;;
75285;SDS011;63879;46.064;14.532;2024-03-23T12:46:41;3.05;;;2.35;;
75285;SDS011;63879;46.064;14.532;2024-03-23T12:49:07;3.53;;;2.10;;
75285;SDS011;63879;46.064;14.532;2024-03-23T12:51:32;2.83;;;1.83;;
75285;SDS011;63879;46.064;14.532;2024-03-23T12:53:58;2.38;;;2.17;;
75285;SDS011;63879;46.064;14.532;2024-03-23T12:56:24;3.75;;;3.25;;
75285;SDS011;63879;46.064;14.532;2024-03-23T12:58:50;5.45;;;2.97;;
75285;SDS011;63879;46.064;14.532;2024-03-23T13:01:19;3.97;;;3.30;;
75285;SDS011;63879;46.064;14.532;2024-03-23T13:03:48;2.47;;;2.28;;
75285;SDS011;63879;46.064;14.532;2024-03-23T13:06:14;3.40;;;2.83;;
75285;SDS011;63879;46.064;14.532;2024-03-23T13:08:40;4.63;;;3.13;;
75285;SDS011;63879;46.064;14.532;2024-03-23T13:11:06;4.78;;;4.32;;
75285;SDS011;63879;46.064;14.532;2024-03-23T13:13:33;3.83;;;2.95;;
75285;SDS011;63879;46.064;14.532;2024-03-23T13:15:59;5.70;;;3.80;;
75285;SDS011;63879;46.064;14.532;2024-03-23T13:18:25;4.15;;;3.72;;
75285;SDS011;63879;46.064;14.532;2024-03-23T13:20:52;4.45;;;3.85;;
75285;SDS011;63879;46.064;14.532;2024-03-23T13:23:18;3.83;;;3.40;;
75285;SDS011;63879;46.064;14.532;2024-03-23T13:25:54;3.97;;;3.63;;
75285;SDS011;63879;46.064;14.532;2024-03-23T13:28:20;5.15;;;4.57;;
75285;SDS011;63879;46.064;14.532;2024-03-23T13:30:53;5.55;;;3.15;;
75285;SDS011;63879;46.064;14.532;2024-03-23T13:33:19;4.25;;;3.42;;
75285;SDS011;63879;46.064;14.532;2024-03-23T13:35:51;4.72;;;3.67;;
75285;SDS011;63879;46.064;14.532;2024-03-23T13:38:17;5.97;;;4.28;;
75285;SDS011;63879;46.064;14.532;2024-03-23T13:40:56;4.78;;;3.63;;
75285;SDS011;63879;46.064;14.532;2024-03-23T13:43:22;6.45;;;3.85;;
75285;SDS011;63879;46.064;14.532;2024-03-23T13:45:49;7.07;;;3.80;;
75285;SDS011;63879;46.064;14.532;2024-03-23T13:48:19;5.63;;;4.63;;
75285;SDS011;63879;46.064;14.532;2024-03-23T13:50:45;5.07;;;4.55;;
75285;SDS011;63879;46.064;14.532;2024-03-23T13:53:12;5.72;;;3.92;;
75285;SDS011;63879;46.064;14.532;2024-03-23T13:55:38;5.07;;;4.38;;
75285;SDS011;63879;46.064;14.532;2024-03-23T13:58:11;5.45;;;3.42;;
75285;SDS011;63879;46.064;14.532;2024-03-23T14:00:37;4.55;;;3.78;;
75285;SDS011;63879;46.064;14.532;2024-03-23T14:03:03;5.72;;;3.72;;
75285;SDS011;63879;46.064;14.532;2024-03-23T14:05:28;5.03;;;3.25;;
75285;SDS011;63879;46.064;14.532;2024-03-23T14:07:54;6.55;;;3.75;;
75285;SDS011;63879;46.064;14.532;2024-03-23T14:10:19;5.05;;;3.88;;
75285;SDS011;63879;46.064;14.532;2024-03-23T14:12:44;5.07;;;4.57;;
75285;SDS011;63879;46.064;14.532;2024-03-23T14:15:10;4.97;;;4.18;;
75285;SDS011;63879;46.064;14.532;2024-03-23T14:17:35;6.25;;;4.03;;
75285;SDS011;63879;46.064;14.532;2024-03-23T14:20:01;5.25;;;4.57;;
75285;SDS011;63879;46.064;14.532;2024-03-23T14:22:29;7.32;;;4.65;;
75285;SDS011;63879;46.064;14.532;2024-03-23T14:24:55;4.53;;;3.40;;
75285;SDS011;63879;46.064;14.532;2024-03-23T14:27:20;4.68;;;3.72;;
75285;SDS011;63879;46.064;14.532;2024-03-23T14:29:46;3.60;;;3.28;;
75285;SDS011;63879;46.064;14.532;2024-03-23T14:32:12;5.50;;;3.60;;
75285;SDS011;63879;46.064;14.532;2024-03-23T14:34:38;7.13;;;4.45;;
75285;SDS011;63879;46.064;14.532;2024-03-23T14:37:04;4.93;;;3.95;;
75285;SDS011;63879;46.064;14.532;2024-03-23T14:39:30;4.70;;;4.13;;
75285;SDS011;63879;46.064;14.532;2024-03-23T14:41:56;6.35;;;4.47;;
75285;SDS011;63879;46.064;14.532;2024-03-23T14:44:22;5.18;;;4.03;;
75285;SDS011;63879;46.064;14.532;2024-03-23T14:46:47;4.82;;;4.32;;
75285;SDS011;63879;46.064;14.532;2024-03-23T14:49:16;5.53;;;4.28;;
75285;SDS011;63879;46.064;14.532;2024-03-23T14:51:41;7.55;;;3.80;;
75285;SDS011;63879;46.064;14.532;2024-03-23T14:54:08;5.82;;;4.25;;
75285;SDS011;63879;46.064;14.532;2024-03-23T14:56:33;5.20;;;3.85;;
75285;SDS011;63879;46.064;14.532;2024-03-23T14:58:59;5.70;;;4.57;;
75285;SDS011;63879;46.064;14.532;2024-03-23T15:01:25;6.88;;;5.10;;
75285;SDS011;63879;46.064;14.532;2024-03-23T15:03:50;5.82;;;4.53;;
75285;SDS011;63879;46.064;14.532;2024-03-23T15:08:43;7.37;;;4.80;;
75285;SDS011;63879;46.064;14.532;2024-03-23T15:11:09;6.45;;;4.53;;
75285;SDS011;63879;46.064;14.532;2024-03-23T15:13:37;6.43;;;4.38;;
75285;SDS011;63879;46.064;14.532;2024-03-23T15:16:04;9.30;;;6.50;;
75285;SDS011;63879;46.064;14.532;2024-03-23T15:18:30;10.50;;;8.45;;
75285;SDS011;63879;46.064;14.532;2024-03-23T15:20:57;4.90;;;3.65;;
75285;SDS011;63879;46.064;14.532;2024-03-23T15:23:31;5.25;;;3.38;;
75285;SDS011;63879;46.064;14.532;2024-03-23T15:25:57;8.05;;;4.60;;
75285;SDS011;63879;46.064;14.532;2024-03-23T15:28:23;5.50;;;5.00;;
75285;SDS011;63879;46.064;14.532;2024-03-23T15:30:51;6.18;;;4.85;;
75285;SDS011;63879;46.064;14.532;2024-03-23T15:33:17;5.13;;;3.70;;
75285;SDS011;63879;46.064;14.532;2024-03-23T15:35:42;4.57;;;3.95;;
75285;SDS011;63879;46.064;14.532;2024-03-23T15:38:08;4.13;;;3.72;;
75285;SDS011;63879;46.064;14.532;2024-03-23T15:40:34;5.18;;;4.22;;
75285;SDS011;63879;46.064;14.532;2024-03-23T15:43:00;6.60;;;5.28;;
75285;SDS011;63879;46.064;14.532;2024-03-23T15:45:25;5.25;;;4.38;;
75285;SDS011;63879;46.064;14.532;2024-03-23T15:47:51;5.50;;;3.95;;
75285;SDS011;63879;46.064;14.532;2024-03-23T15:50:17;6.82;;;4.35;;
75285;SDS011;63879;46.064;14.532;2024-03-23T15:52:42;6.55;;;3.60;;
75285;SDS011;63879;46.064;14.532;2024-03-23T15:55:08;4.55;;;3.75;;
75285;SDS011;63879;46.064;14.532;2024-03-23T15:57:35;5.30;;;3.50;;
75285;SDS011;63879;46.064;14.532;2024-03-23T16:00:02;5.97;;;4.15;;
75285;SDS011;63879;46.064;14.532;2024-03-23T16:02:28;7.82;;;4.18;;
75285;SDS011;63879;46.064;14.532;2024-03-23T16:04:53;5.15;;;3.78;;
75285;SDS011;63879;46.064;14.532;2024-03-23T16:07:19;6.93;;;4.90;;
75285;SDS011;63879;46.064;14.532;2024-03-23T16:09:45;5.13;;;2.72;;
75285;SDS011;63879;46.064;14.532;2024-03-23T16:12:10;7.82;;;7.13;;
75285;SDS011;63879;46.064;14.532;2024-03-23T16:14:36;5.70;;;3.40;;
75285;SDS011;63879;46.064;14.532;2024-03-23T16:17:01;5.63;;;3.63;;
75285;SDS011;63879;46.064;14.532;2024-03-23T16:19:27;5.63;;;4.40;;
75285;SDS011;63879;46.064;14.532;2024-03-23T16:21:52;4.90;;;3.97;;
75285;SDS011;63879;46.064;14.532;2024-03-23T16:24:19;6.18;;;4.20;;
75285;SDS011;63879;46.064;14.532;2024-03-23T16:26:44;5.05;;;4.07;;
75285;SDS011;63879;46.064;14.532;2024-03-23T16:29:10;4.53;;;4.05;;
75285;SDS011;63879;46.064;14.532;2024-03-23T16:31:36;6.72;;;4.38;;
75285;SDS011;63879;46.064;14.532;2024-03-23T16:34:01;5.38;;;3.55;;
75285;SDS011;63879;46.064;14.532;2024-03-23T16:36:27;6.30;;;3.55;;
75285;SDS011;63879;46.064;14.532;2024-03-23T16:38:52;6.03;;;5.05;;
75285;SDS011;63879;46.064;14.532;2024-03-23T16:41:18;5.15;;;4.32;;
75285;SDS011;63879;46.064;14.532;2024-03-23T16:43:44;6.35;;;3.55;;
75285;SDS011;63879;46.064;14.532;2024-03-23T16:46:12;4.53;;;4.13;;
75285;SDS011;63879;46.064;14.532;2024-03-23T16:48:40;5.63;;;5.07;;
75285;SDS011;63879;46.064;14.532;2024-03-23T16:51:06;5.60;;;4.90;;
75285;SDS011;63879;46.064;14.532;2024-03-23T16:53:33;6.53;;;5.93;;
75285;SDS011;63879;46.064;14.532;2024-03-23T16:58:29;5.22;;;3.30;;
75285;SDS011;63879;46.064;14.532;2024-03-23T17:03:30;4.07;;;3.67;;
75285;SDS011;63879;46.064;14.532;2024-03-23T17:05:55;4.00;;;2.33;;
75285;SDS011;63879;46.064;14.532;2024-03-23T17:08:21;4.85;;;3.67;;
75285;SDS011;63879;46.064;14.532;2024-03-23T17:10:47;4.75;;;3.88;;
75285;SDS011;63879;46.064;14.532;2024-03-23T17:13:13;6.13;;;3.80;;
75285;SDS011;63879;46.064;14.532;2024-03-23T17:15:45;5.05;;;4.45;;
75285;SDS011;63879;46.064;14.532;2024-03-23T17:18:11;4.47;;;3.85;;
75285;SDS011;63879;46.064;14.532;2024-03-23T17:20:36;5.95;;;5.35;;
75285;SDS011;63879;46.064;14.532;2024-03-23T17:23:02;5.20;;;4.18;;
75285;SDS011;63879;46.064;14.532;2024-03-23T17:25:28;5.57;;;3.70;;
75285;SDS011;63879;46.064;14.532;2024-03-23T17:27:53;5.22;;;3.75;;
75285;SDS011;63879;46.064;14.532;2024-03-23T17:30:19;8.43;;;4.05;;
75285;SDS011;63879;46.064;14.532;2024-03-23T17:32:44;4.28;;;3.67;;
75285;SDS011;63879;46.064;14.532;2024-03-23T17:35:10;5.00;;;3.20;;
75285;SDS011;63879;46.064;14.532;2024-03-23T17:37:37;3.45;;;3.15;;
75285;SDS011;63879;46.064;14.532;2024-03-23T17:40:03;5.82;;;4.00;;
75285;SDS011;63879;46.064;14.532;2024-03-23T17:42:32;5.40;;;2.95;;
75285;SDS011;63879;46.064;14.532;2024-03-23T17:44:58;4.93;;;4.43;;
75285;SDS011;63879;46.064;14.532;2024-03-23T17:47:23;4.28;;;3.88;;
75285;SDS011;63879;46.064;14.532;2024-03-23T17:49:49;4.25;;;3.75;;
75285;SDS011;63879;46.064;14.532;2024-03-23T17:52:14;4.40;;;3.00;;
75285;SDS011;63879;46.064;14.532;2024-03-23T17:54:40;6.20;;;4.50;;
75285;SDS011;63879;46.064;14.532;2024-03-23T17:57:05;6.10;;;4.22;;
75285;SDS011;63879;46.064;14.532;2024-03-23T17:59:31;5.35;;;4.80;;
75285;SDS011;63879;46.064;14.532;2024-03-23T18:01:58;4.25;;;2.92;;
75285;SDS011;63879;46.064;14.532;2024-03-23T18:04:24;6.40;;;3.97;;
75285;SDS011;63879;46.064;14.532;2024-03-23T18:06:49;4.63;;;3.65;;
75285;SDS011;63879;46.064;14.532;2024-03-23T18:09:16;5.13;;;4.63;;
75285;SDS011;63879;46.064;14.532;2024-03-23T18:11:42;4.85;;;3.55;;
75285;SDS011;63879;46.064;14.532;2024-03-23T18:14:07;4.60;;;3.53;;
75285;SDS011;63879;46.064;14.532;2024-03-23T18:16:33;6.32;;;5.80;;
75285;SDS011;63879;46.064;14.532;2024-03-23T18:18:58;5.07;;;4.60;;
75285;SDS011;63879;46.064;14.532;2024-03-23T18:21:24;5.25;;;3.50;;
75285;SDS011;63879;46.064;14.532;2024-03-23T18:23:49;6.60;;;4.63;;
75285;SDS011;63879;46.064;14.532;2024-03-23T18:26:15;6.28;;;4.18;;
75285;SDS011;63879;46.064;14.532;2024-03-23T18:28:41;5.32;;;4.30;;
75285;SDS011;63879;46.064;14.532;2024-03-23T18:31:06;5.90;;;3.72;;
75285;SDS011;63879;46.064;14.532;2024-03-23T18:33:39;4.75;;;3.45;;
75285;SDS011;63879;46.064;14.532;2024-03-23T18:36:05;4.38;;;3.88;;
75285;SDS011;63879;46.064;14.532;2024-03-23T18:38:31;5.25;;;4.43;;
75285;SDS011;63879;46.064;14.532;2024-03-23T18:40:56;4.80;;;3.90;;
75285;SDS011;63879;46.064;14.532;2024-03-23T18:43:22;5.70;;;4.43;;
75285;SDS011;63879;46.064;14.532;2024-03-23T18:45:51;6.65;;;4.97;;
75285;SDS011;63879;46.064;14.532;2024-03-23T18:48:17;8.93;;;5.85;;
75285;SDS011;63879;46.064;14.532;2024-03-23T18:50:43;5.15;;;1.75;;
75285;SDS011;63879;46.064;14.532;2024-03-23T18:53:09;2.50;;;2.38;;
75285;SDS011;63879;46.064;14.532;2024-03-23T18:55:41;9.45;;;5.10;;
75285;SDS011;63879;46.064;14.532;2024-03-23T18:58:15;15.02;;;13.73;;
75285;SDS011;63879;46.064;14.532;2024-03-23T19:00:41;9.07;;;8.55;;
75285;SDS011;63879;46.064;14.532;2024-03-23T19:03:06;19.65;;;18.75;;
75285;SDS011;63879;46.064;14.532;2024-03-23T19:05:32;31.02;;;29.48;;
75285;SDS011;63879;46.064;14.532;2024-03-23T19:07:57;20.13;;;19.35;;
75285;SDS011;63879;46.064;14.532;2024-03-23T19:10:23;3.95;;;3.75;;
75285;SDS011;63879;46.064;14.532;2024-03-23T19:12:48;8.77;;;8.40;;
75285;SDS011;63879;46.064;14.532;2024-03-23T19:15:14;6.55;;;6.35;;
75285;SDS011;63879;46.064;14.532;2024-03-23T19:17:40;7.90;;;7.60;;
75285;SDS011;63879;46.064;14.532;2024-03-23T19:20:06;4.05;;;3.85;;
75285;SDS011;63879;46.064;14.532;2024-03-23T19:22:32;2.30;;;2.22;;
75285;SDS011;63879;46.064;14.532;2024-03-23T19:24:57;1.88;;;1.85;;
75285;SDS011;63879;46.064;14.532;2024-03-23T19:27:25;4.25;;;4.05;;
75285;SDS011;63879;46.064;14.532;2024-03-23T19:29:50;1.70;;;1.70;;
